Duckwater, NV

6:06 PM PDT on August 30, 2014 (GMT -0700)
Wendover | Change Station
CLOSE
Current Station
Airport
Location: Wendover,
Elevation: 4239 ft
Nearby Weather Stations
Active Advisory: Fire Weather Warning

Elev 4239 ft 40.72 °N, 114.03 °W | Updated 11 minutes ago

Clear
Clear
84 °F
Feels Like 84 °F
N
18
Wind Variable Wind from WNW

Today
High -- | Low -- °F
--% Chance of Precip.
Yesterday
High -- | Low -- °F
Precip. -- in
6:06 AM 7:13 PM
Waxing Crescent, 26% visible
Pressure 29.81 in
Visibility 10.0 miles
Clouds Clear
Dew Point 30 °F
Humidity 14%
Rainfall 0.00 in
Snow Depth Not available.
UV 1 out of 12
Pollen 9.10 out of 12
Air Quality Not available.
Flu Activity Not available.
METAR KENV 310055Z 30016KT 10SM CLR 29/M01 A2981 RMK AO1

More Conditions Fewer Conditions

Pressure 29.81 in
Visibility 10.0 miles
Clouds Clear
Dew Point 30 °F
Humidity 14%
Rainfall 0.00 in
Snow Depth Not available.
UV 1 out of 12
Pollen 9.10 out of 12
Air Quality Not available.
Flu Activity Not available.
METAR KENV 310055Z 30016KT 10SM CLR 29/M01 A2981 RMK AO1

More Conditions Fewer Conditions

10-Day Weather Forecast

Almanac

Astronomy

Aug. 30, 2014 Rise Set
Actual Time 6:06 AM PDT 7:13 PM PDT
Civil Twilight 5:38 AM PDT 7:40 PM PDT
Nautical Twilight 5:05 AM PDT 8:13 PM PDT
Astronomical Twilight 4:31 AM PDT 8:47 PM PDT
Moon 10:55 AM PDT (8/30) 9:52 PM PDT (8/30)
Length of Visible Light 14h 01m
Length of Day
13h 06m
Tomorrow will be 2m 27s shorter.
Waxing Crescent, 26% of the Moon is Illuminated
Today
Waxing Crescent
Sep 2
First Quarter
Sep 8
Full
Sep 15
Last Quarter
Sep 24
New

Today's Extremes

State Highs State Lows

Community

WunderPhotos

Upload Photos

1,748,707 photos uploaded!

Nearby

Snow Depth

Station Depth Elevation
Diamond Peak 0 in 8000 ft
Taylor Canyon 1 in 6200 ft
Jacks Peak 4 in 8420 ft
Draw Creek 0 in 7200 ft
Jack Creek Upper 0 in 7250 ft

Earthquake Activity

City Distance Mag. Time & Date
No recent earthquake activity has been reported nearby.
Minimum magnitude displayed is 2.5.

Coastal Water Temperatures

Place Temperature
No Stations Reporting

Nearby Weather Stations